createdAt,value
2019-03-04T00:00:15.136Z,984.0
2019-03-04T00:03:15.645Z,983.9
2019-03-04T00:06:15.251Z,984.1
2019-03-04T00:09:15.187Z,983.9
2019-03-04T00:12:15.117Z,983.8
2019-03-04T00:15:16.107Z,983.8
2019-03-04T00:18:15.265Z,983.8
2019-03-04T00:21:14.993Z,983.8
2019-03-04T00:24:16.004Z,983.7
2019-03-04T00:27:15.387Z,983.6
2019-03-04T00:30:15.108Z,983.6
2019-03-04T00:33:15.734Z,983.6
2019-03-04T00:36:15.590Z,983.6
2019-03-04T00:39:15.261Z,983.6
2019-03-04T00:42:16.114Z,983.5
2019-03-04T00:45:15.786Z,983.5
2019-03-04T00:48:15.649Z,983.4
2019-03-04T00:51:15.328Z,983.4
2019-03-04T00:54:15.162Z,983.4
2019-03-04T00:57:16.020Z,983.4
2019-03-04T01:00:15.741Z,983.4
2019-03-04T01:03:15.723Z,983.4
2019-03-04T01:06:15.322Z,983.3
2019-03-04T01:09:15.305Z,983.3
2019-03-04T01:12:15.260Z,983.2
2019-03-04T01:15:15.081Z,983.2
2019-03-04T01:18:15.789Z,983.2
2019-03-04T01:21:15.521Z,983.1
2019-03-04T01:24:15.343Z,983.0
2019-03-04T01:27:15.233Z,983.0
2019-03-04T01:30:15.219Z,983.0
2019-03-04T01:33:15.002Z,982.9
2019-03-04T01:36:14.874Z,982.8
2019-03-04T01:39:15.615Z,982.8
2019-03-04T01:42:15.242Z,982.7
2019-03-04T01:45:16.039Z,982.3
2019-03-04T01:48:15.663Z,982.6
2019-03-04T01:51:15.109Z,982.5
2019-03-04T01:54:15.957Z,982.5
2019-03-04T01:57:15.454Z,982.4
2019-03-04T02:00:15.341Z,982.4
2019-03-04T02:03:15.265Z,982.4
2019-03-04T02:06:14.986Z,982.2
2019-03-04T02:09:15.991Z,982.0
2019-03-04T02:12:15.365Z,982.0
2019-03-04T02:15:14.906Z,982.0
2019-03-04T02:18:15.526Z,981.9
2019-03-04T02:21:15.262Z,981.9
2019-03-04T02:24:15.224Z,981.7
2019-03-04T02:27:15.879Z,981.6
2019-03-04T02:30:15.477Z,981.6
2019-03-04T02:33:15.026Z,981.8
2019-03-04T02:36:15.779Z,981.9
2019-03-04T02:39:15.459Z,981.9
2019-03-04T02:42:15.370Z,981.8
2019-03-04T02:45:15.077Z,981.8
2019-03-04T02:48:14.970Z,981.6
2019-03-04T02:51:15.705Z,981.4
2019-03-04T02:54:15.439Z,981.1
2019-03-04T02:57:15.595Z,981.0
2019-03-04T03:00:15.457Z,980.9
2019-03-04T03:03:15.185Z,980.9
2019-03-04T03:06:16.205Z,980.6
2019-03-04T03:09:14.991Z,980.5
2019-03-04T03:12:15.730Z,980.5
2019-03-04T03:15:15.648Z,980.4
2019-03-04T03:18:15.679Z,980.2
2019-03-04T03:21:15.422Z,980.1
2019-03-04T03:24:15.104Z,980.2
2019-03-04T03:27:15.795Z,980.2
2019-03-04T03:30:15.468Z,980.2
2019-03-04T03:33:15.182Z,980.3
2019-03-04T03:36:14.960Z,980.2
2019-03-04T03:39:15.590Z,980.4
2019-03-04T03:42:18.671Z,980.4
2019-03-04T03:45:14.917Z,980.4
2019-03-04T03:48:15.564Z,980.4
2019-03-04T03:51:15.244Z,980.4
2019-03-04T03:54:15.132Z,980.4
2019-03-04T03:57:15.893Z,980.4
2019-03-04T04:00:15.413Z,980.3
2019-03-04T04:03:15.202Z,980.3
2019-03-04T04:06:15.772Z,980.3
2019-03-04T04:09:15.354Z,980.3
2019-03-04T04:12:15.266Z,980.2
2019-03-04T04:15:15.943Z,979.9
2019-03-04T04:18:15.110Z,979.9
2019-03-04T04:21:15.775Z,979.8
2019-03-04T04:24:15.674Z,979.7
2019-03-04T04:27:15.419Z,979.6
2019-03-04T04:30:15.268Z,979.5
2019-03-04T04:33:15.670Z,979.4
2019-03-04T04:36:15.246Z,979.4
2019-03-04T04:39:15.773Z,979.4
2019-03-04T04:42:15.297Z,979.4
2019-03-04T04:45:15.849Z,979.4
2019-03-04T04:48:15.553Z,979.2
2019-03-04T04:51:15.250Z,979.2
2019-03-04T04:54:15.903Z,979.2
2019-03-04T04:57:15.692Z,979.2
2019-03-04T05:00:15.281Z,978.9
2019-03-04T05:03:15.815Z,978.9
2019-03-04T05:06:15.589Z,978.7
2019-03-04T05:09:15.859Z,978.6
2019-03-04T05:12:15.444Z,978.7
2019-03-04T05:15:15.119Z,978.6
2019-03-04T05:18:15.631Z,978.4
2019-03-04T05:21:15.243Z,977.7
2019-03-04T05:24:14.971Z,977.6
2019-03-04T05:27:15.510Z,977.7
2019-03-04T05:30:15.438Z,977.9
2019-03-04T05:33:15.135Z,977.9
2019-03-04T05:36:15.921Z,977.7
2019-03-04T05:39:15.706Z,977.6
2019-03-04T05:42:15.364Z,977.8
2019-03-04T05:45:15.978Z,978.1
2019-03-04T05:48:15.582Z,978.1
2019-03-04T05:51:15.276Z,978.2
2019-03-04T05:54:16.275Z,978.1
2019-03-04T05:57:15.945Z,978.0
2019-03-04T06:00:15.830Z,978.0
2019-03-04T06:03:15.745Z,978.1
2019-03-04T06:06:15.473Z,978.0
2019-03-04T06:09:15.477Z,978.0
2019-03-04T06:12:15.233Z,978.0
2019-03-04T06:15:15.904Z,978.1
2019-03-04T06:18:15.747Z,978.3
2019-03-04T06:21:15.565Z,977.9
2019-03-04T06:24:15.240Z,977.8
2019-03-04T06:27:16.057Z,977.9
2019-03-04T06:30:15.867Z,977.6
2019-03-04T06:33:15.023Z,977.0
2019-03-04T06:36:16.043Z,977.4
2019-03-04T06:39:15.551Z,977.0
2019-03-04T06:42:15.366Z,977.2
2019-03-04T06:45:15.092Z,977.0
2019-03-04T06:48:15.861Z,976.8
2019-03-04T06:51:15.627Z,977.0
2019-03-04T06:54:15.378Z,975.7
2019-03-04T06:57:15.612Z,976.2
2019-03-04T07:00:15.657Z,976.6
2019-03-04T07:03:15.765Z,976.6
2019-03-04T07:06:15.480Z,976.3
2019-03-04T07:09:15.292Z,975.6
2019-03-04T07:12:15.161Z,976.0
2019-03-04T07:15:15.101Z,976.1
2019-03-04T07:18:15.711Z,975.7
2019-03-04T07:21:15.323Z,976.0
2019-03-04T07:24:15.284Z,975.9
2019-03-04T07:27:15.841Z,975.7
2019-03-04T07:30:15.476Z,975.9
2019-03-04T07:33:15.225Z,976.1
2019-03-04T07:36:15.119Z,975.9
2019-03-04T07:39:15.847Z,975.9
2019-03-04T07:42:15.609Z,975.4
2019-03-04T07:45:15.599Z,975.8
2019-03-04T07:48:15.727Z,975.6
2019-03-04T07:51:15.283Z,975.3
2019-03-04T07:54:15.429Z,975.4
2019-03-04T07:57:15.207Z,975.8
2019-03-04T08:00:15.927Z,975.6
2019-03-04T08:03:15.595Z,975.8
2019-03-04T08:06:15.184Z,975.6
2019-03-04T08:09:15.249Z,975.6
2019-03-04T08:12:15.287Z,975.6
2019-03-04T08:15:15.613Z,975.8
2019-03-04T08:18:15.154Z,976.0
2019-03-04T08:21:15.891Z,976.0
2019-03-04T08:24:15.898Z,976.2
2019-03-04T08:27:15.646Z,976.8
2019-03-04T08:30:15.586Z,977.1
2019-03-04T08:33:15.745Z,977.2
2019-03-04T08:36:15.570Z,977.2
2019-03-04T08:39:15.766Z,977.2
2019-03-04T08:42:15.455Z,976.8
2019-03-04T08:45:15.017Z,976.9
2019-03-04T08:48:15.965Z,977.0
2019-03-04T08:51:15.693Z,976.8
2019-03-04T08:54:15.526Z,976.8
2019-03-04T08:57:15.989Z,976.9
2019-03-04T09:00:16.050Z,977.1
2019-03-04T09:03:15.809Z,977.2
2019-03-04T09:06:15.434Z,977.3
2019-03-04T09:09:15.385Z,977.5
2019-03-04T09:12:15.174Z,977.6
2019-03-04T09:15:15.953Z,977.4
2019-03-04T09:18:15.566Z,977.4
2019-03-04T09:21:15.498Z,977.6
2019-03-04T09:24:15.345Z,977.4
2019-03-04T09:27:15.289Z,977.2
2019-03-04T09:30:15.168Z,977.5
2019-03-04T09:33:16.095Z,977.7
2019-03-04T09:36:15.179Z,977.7
2019-03-04T09:39:15.890Z,977.3
2019-03-04T09:42:15.729Z,977.7
2019-03-04T09:45:15.254Z,977.7
2019-03-04T09:48:15.640Z,977.6
2019-03-04T09:51:24.030Z,977.8
2019-03-04T09:54:15.640Z,977.5
2019-03-04T09:57:15.307Z,977.8
2019-03-04T10:00:15.170Z,977.4
2019-03-04T10:03:15.559Z,977.5
2019-03-04T10:06:15.792Z,977.6
2019-03-04T10:09:15.195Z,977.6
2019-03-04T10:12:15.648Z,977.5
2019-03-04T10:15:14.974Z,977.4
2019-03-04T10:18:15.477Z,977.4
2019-03-04T10:21:15.691Z,977.3
2019-03-04T10:24:15.488Z,977.4
2019-03-04T10:27:15.097Z,977.5
2019-03-04T10:30:15.948Z,977.7
2019-03-04T10:33:15.750Z,977.8
2019-03-04T10:36:15.939Z,977.8
2019-03-04T10:39:17.828Z,977.5
2019-03-04T10:42:15.496Z,977.9
2019-03-04T10:45:15.616Z,977.7
2019-03-04T10:48:15.563Z,977.8
2019-03-04T10:51:15.474Z,977.5
2019-03-04T10:54:15.369Z,977.7
2019-03-04T10:57:15.198Z,977.9
2019-03-04T11:00:15.393Z,977.8
2019-03-04T11:03:15.438Z,977.7
2019-03-04T11:06:15.064Z,977.6
2019-03-04T11:09:15.909Z,977.6
2019-03-04T11:12:15.395Z,977.4
2019-03-04T11:15:15.093Z,977.2
2019-03-04T11:18:15.425Z,977.3
2019-03-04T11:21:15.474Z,977.3
2019-03-04T11:24:15.402Z,977.2
2019-03-04T11:27:15.354Z,977.2
2019-03-04T11:30:15.374Z,977.1
2019-03-04T11:33:15.778Z,977.1
2019-03-04T11:36:15.471Z,977.1
2019-03-04T11:39:15.235Z,976.9
2019-03-04T11:42:15.262Z,976.8
2019-03-04T11:45:15.873Z,977.0
2019-03-04T11:48:15.746Z,976.9
2019-03-04T11:51:15.417Z,976.6
2019-03-04T11:54:15.124Z,976.8
2019-03-04T11:57:15.257Z,976.6
2019-03-04T12:00:14.931Z,976.4
2019-03-04T12:03:15.087Z,976.5
2019-03-04T12:06:15.717Z,976.6
2019-03-04T12:09:15.870Z,976.6
2019-03-04T12:12:15.613Z,976.3
2019-03-04T12:15:15.265Z,976.5
2019-03-04T12:18:15.363Z,976.6
2019-03-04T12:21:15.188Z,976.7
2019-03-04T12:24:14.971Z,976.6
2019-03-04T12:27:15.039Z,976.9
2019-03-04T12:30:15.067Z,976.9
2019-03-04T12:33:15.055Z,976.8
2019-03-04T12:36:15.058Z,976.8
2019-03-04T12:39:15.107Z,976.6
2019-03-04T12:42:15.143Z,976.9
2019-03-04T12:45:15.895Z,976.8
2019-03-04T12:48:15.336Z,977.1
2019-03-04T12:51:22.815Z,976.9
2019-03-04T12:54:15.416Z,977.2
2019-03-04T12:57:14.972Z,977.4
2019-03-04T13:00:15.965Z,977.1
2019-03-04T13:03:15.850Z,977.0
2019-03-04T13:06:15.489Z,976.8
2019-03-04T13:09:15.254Z,976.9
2019-03-04T13:12:15.003Z,976.9
2019-03-04T13:15:15.656Z,977.1
2019-03-04T13:18:15.161Z,977.0
2019-03-04T13:21:15.970Z,977.0
2019-03-04T13:24:15.904Z,977.3
2019-03-04T13:27:23.587Z,977.0
2019-03-04T13:30:15.875Z,977.3
2019-03-04T13:33:15.067Z,977.3
2019-03-04T13:36:15.763Z,977.2
2019-03-04T13:39:15.643Z,977.5
2019-03-04T13:42:15.107Z,977.7
2019-03-04T13:45:15.984Z,977.8
2019-03-04T13:48:15.733Z,978.0
2019-03-04T13:51:15.476Z,978.2
2019-03-04T13:54:15.260Z,978.3
2019-03-04T13:57:15.529Z,978.3
2019-03-04T14:00:15.388Z,978.3
2019-03-04T14:03:15.428Z,978.2
2019-03-04T14:06:15.625Z,978.2
2019-03-04T14:09:15.779Z,978.1
2019-03-04T14:12:15.678Z,978.0
2019-03-04T14:15:15.499Z,978.0
2019-03-04T14:18:15.476Z,978.0
2019-03-04T14:21:15.135Z,978.0
2019-03-04T14:24:15.887Z,978.1
2019-03-04T14:27:15.505Z,978.1
2019-03-04T14:30:15.341Z,978.0
2019-03-04T14:33:15.021Z,977.9
2019-03-04T14:36:15.661Z,978.1
2019-03-04T14:39:15.307Z,978.2
2019-03-04T14:42:15.117Z,978.2
2019-03-04T14:45:15.776Z,978.1
2019-03-04T14:48:17.955Z,978.5
2019-03-04T14:51:15.043Z,978.9
2019-03-04T14:54:15.774Z,979.2
2019-03-04T14:57:15.576Z,979.4
2019-03-04T15:00:15.364Z,979.5
2019-03-04T15:03:20.901Z,979.5
2019-03-04T15:06:15.063Z,979.5
2019-03-04T15:09:15.963Z,979.6
2019-03-04T15:12:15.805Z,979.7
2019-03-04T15:15:15.685Z,979.8
2019-03-04T15:18:15.126Z,979.9
2019-03-04T15:21:15.786Z,980.0
2019-03-04T15:24:15.946Z,980.0
2019-03-04T15:27:15.063Z,980.0
2019-03-04T15:30:15.863Z,980.3
2019-03-04T15:33:18.424Z,980.3
2019-03-04T15:36:15.649Z,980.5
2019-03-04T15:39:22.598Z,980.6
2019-03-04T15:42:15.082Z,980.7
2019-03-04T15:45:15.960Z,980.6
2019-03-04T15:48:15.948Z,980.8
2019-03-04T15:51:15.113Z,980.8
2019-03-04T15:54:15.863Z,980.8
2019-03-04T15:57:15.517Z,980.8
2019-03-04T16:00:15.339Z,980.9
2019-03-04T16:03:15.132Z,981.0
2019-03-04T16:06:15.156Z,981.0
2019-03-04T16:09:15.196Z,981.1
2019-03-04T16:12:15.399Z,981.1
2019-03-04T16:15:15.680Z,981.2
2019-03-04T16:18:15.436Z,981.3
2019-03-04T16:21:15.203Z,981.3
2019-03-04T16:24:15.135Z,981.3
2019-03-04T16:27:15.690Z,981.4
2019-03-04T16:30:15.594Z,981.4
2019-03-04T16:33:15.265Z,981.4
2019-03-04T16:36:15.175Z,981.4
2019-03-04T16:39:15.082Z,981.5
2019-03-04T16:42:15.966Z,981.6
2019-03-04T16:45:15.602Z,981.7
2019-03-04T16:48:15.439Z,981.7
2019-03-04T16:51:15.172Z,981.8
2019-03-04T16:54:15.975Z,981.9
2019-03-04T16:57:15.855Z,982.0
2019-03-04T17:00:15.611Z,982.1
2019-03-04T17:03:15.316Z,982.2
2019-03-04T17:06:14.953Z,982.3
2019-03-04T17:09:15.838Z,982.4
2019-03-04T17:12:15.531Z,982.5
2019-03-04T17:15:15.360Z,982.6
2019-03-04T17:18:17.429Z,982.7
2019-03-04T17:21:15.443Z,982.7
2019-03-04T17:24:15.232Z,982.8
2019-03-04T17:27:15.874Z,982.9
2019-03-04T17:30:15.680Z,982.9
2019-03-04T17:33:15.076Z,983.0
2019-03-04T17:36:15.143Z,983.0
2019-03-04T17:39:15.105Z,983.1
2019-03-04T17:42:15.766Z,983.2
2019-03-04T17:45:15.464Z,983.1
2019-03-04T17:48:15.473Z,983.3
2019-03-04T17:51:15.252Z,983.3
2019-03-04T17:54:15.147Z,983.3
2019-03-04T17:57:15.181Z,983.4
2019-03-04T18:00:15.966Z,983.4
2019-03-04T18:03:15.857Z,983.5
2019-03-04T18:06:15.596Z,983.6
2019-03-04T18:09:15.474Z,983.6
2019-03-04T18:12:15.294Z,983.7
2019-03-04T18:15:15.163Z,983.8
2019-03-04T18:18:15.035Z,983.8
2019-03-04T18:21:15.688Z,983.9
2019-03-04T18:24:15.759Z,983.9
2019-03-04T18:27:15.482Z,983.9
2019-03-04T18:30:15.642Z,983.9
2019-03-04T18:33:15.124Z,984.0
2019-03-04T18:36:15.876Z,984.1
2019-03-04T18:39:15.740Z,984.2
2019-03-04T18:42:15.026Z,984.2
2019-03-04T18:45:16.802Z,984.3
2019-03-04T18:48:15.767Z,984.3
2019-03-04T18:51:15.590Z,984.4
2019-03-04T18:54:15.083Z,984.4
2019-03-04T18:57:15.685Z,984.4
2019-03-04T19:00:15.393Z,984.5
2019-03-04T19:03:15.846Z,984.5
2019-03-04T19:06:15.458Z,984.6
2019-03-04T19:09:15.098Z,984.6
2019-03-04T19:12:15.909Z,984.6
2019-03-04T19:15:15.772Z,984.7
2019-03-04T19:18:15.572Z,984.7
2019-03-04T19:21:15.258Z,984.8
2019-03-04T19:24:14.990Z,984.8
2019-03-04T19:27:15.651Z,984.9
2019-03-04T19:30:15.402Z,984.9
2019-03-04T19:33:15.208Z,985.0
2019-03-04T19:36:15.024Z,985.0
2019-03-04T19:39:15.742Z,985.1
2019-03-04T19:42:15.626Z,985.1
2019-03-04T19:45:15.423Z,985.1
2019-03-04T19:48:15.175Z,985.2
2019-03-04T19:51:14.917Z,985.2
2019-03-04T19:54:15.806Z,985.1
2019-03-04T19:57:15.669Z,985.2
2019-03-04T20:00:15.694Z,985.2
2019-03-04T20:03:15.541Z,985.3
2019-03-04T20:06:15.340Z,985.2
2019-03-04T20:09:15.300Z,985.2
2019-03-04T20:12:15.446Z,985.3
2019-03-04T20:15:15.715Z,985.2
2019-03-04T20:18:15.686Z,985.3
2019-03-04T20:21:15.578Z,985.4
2019-03-04T20:24:15.397Z,985.4
2019-03-04T20:27:15.137Z,985.5
2019-03-04T20:30:15.283Z,985.5
2019-03-04T20:33:15.167Z,985.6
2019-03-04T20:36:15.834Z,985.6
2019-03-04T20:39:15.705Z,985.6
2019-03-04T20:42:15.524Z,985.6
2019-03-04T20:45:15.270Z,985.5
2019-03-04T20:48:15.450Z,985.5
2019-03-04T20:51:14.954Z,985.4
2019-03-04T20:54:15.134Z,985.4
2019-03-04T20:57:15.884Z,985.4
2019-03-04T21:00:15.802Z,985.3
2019-03-04T21:03:15.100Z,985.4
2019-03-04T21:06:15.061Z,985.3
2019-03-04T21:09:15.910Z,985.3
2019-03-04T21:12:15.647Z,985.3
2019-03-04T21:15:15.546Z,985.3
2019-03-04T21:18:15.515Z,985.3
2019-03-04T21:21:15.384Z,985.4
2019-03-04T21:24:15.338Z,985.4
2019-03-04T21:27:15.060Z,985.4
2019-03-04T21:30:15.682Z,985.5
2019-03-04T21:33:15.546Z,985.5
2019-03-04T21:36:16.080Z,985.6
2019-03-04T21:39:15.071Z,985.7
2019-03-04T21:42:15.228Z,985.7
2019-03-04T21:45:15.903Z,985.6
2019-03-04T21:48:15.998Z,985.7
2019-03-04T21:51:15.903Z,985.8
2019-03-04T21:54:15.247Z,985.7
2019-03-04T21:57:15.026Z,985.7
2019-03-04T22:00:15.197Z,985.9
2019-03-04T22:03:15.817Z,985.9
2019-03-04T22:06:15.108Z,985.9
2019-03-04T22:09:15.843Z,985.9
2019-03-04T22:12:15.654Z,985.9
2019-03-04T22:15:15.272Z,985.9
2019-03-04T22:18:15.869Z,986.0
2019-03-04T22:21:16.994Z,986.0
2019-03-04T22:24:15.816Z,986.0
2019-03-04T22:27:15.537Z,986.0
2019-03-04T22:30:15.450Z,986.0
2019-03-04T22:33:15.306Z,986.0
2019-03-04T22:36:15.126Z,986.0
2019-03-04T22:39:15.715Z,986.1
2019-03-04T22:42:15.295Z,986.1
2019-03-04T22:45:14.957Z,986.2
2019-03-04T22:48:15.773Z,986.2
2019-03-04T22:51:15.445Z,986.2
2019-03-04T22:54:15.147Z,986.3
2019-03-04T22:57:15.706Z,986.3
2019-03-04T23:00:15.527Z,986.4
2019-03-04T23:03:15.708Z,986.5
2019-03-04T23:06:15.366Z,986.4
2019-03-04T23:09:15.465Z,986.7
2019-03-04T23:12:15.470Z,986.7
2019-03-04T23:15:15.714Z,986.7
2019-03-04T23:18:15.642Z,986.7
2019-03-04T23:21:15.465Z,986.8
2019-03-04T23:24:15.218Z,986.8
2019-03-04T23:27:15.851Z,986.9
2019-03-04T23:30:15.235Z,986.9
2019-03-04T23:33:15.803Z,986.9
2019-03-04T23:36:15.614Z,986.9
2019-03-04T23:39:15.141Z,986.9
2019-03-04T23:42:15.707Z,986.9
2019-03-04T23:45:15.394Z,986.9
2019-03-04T23:48:15.012Z,986.9
2019-03-04T23:51:15.763Z,987.0
2019-03-04T23:54:15.507Z,987.0
2019-03-04T23:57:15.138Z,987.1
